createdAt,value
2019-04-24T00:00:05.320Z,12.80
2019-04-24T00:05:16.610Z,12.70
2019-04-24T00:07:23.569Z,12.80
2019-04-24T00:10:02.886Z,12.70
2019-04-24T00:12:51.268Z,12.70
2019-04-24T00:17:52.752Z,12.60
2019-04-24T00:23:00.488Z,12.50
2019-04-24T00:27:58.137Z,12.50
2019-04-24T00:30:24.479Z,12.50
2019-04-24T00:35:30.889Z,12.50
2019-04-24T00:38:12.499Z,12.50
2019-04-24T00:40:35.098Z,12.50
2019-04-24T00:45:50.345Z,12.30
2019-04-24T00:51:00.386Z,12.30
2019-04-24T00:53:37.657Z,12.50
2019-04-24T00:55:53.218Z,12.40
2019-04-24T00:58:24.944Z,12.40
2019-04-24T01:01:05.687Z,12.30
2019-04-24T01:03:39.139Z,12.20
2019-04-24T01:08:54.407Z,12.20
2019-04-24T01:11:31.304Z,12.20
2019-04-24T01:14:15.904Z,12.20
2019-04-24T01:19:15.858Z,12.30
2019-04-24T01:22:01.384Z,12.20
2019-04-24T01:26:50.955Z,12.20
2019-04-24T01:29:24.001Z,12.20
2019-04-24T01:34:51.592Z,12.20
2019-04-24T01:37:33.547Z,12.20
2019-04-24T01:40:00.246Z,12.20
2019-04-24T01:45:16.679Z,12.10
2019-04-24T01:47:42.896Z,12.10
2019-04-24T01:50:14.320Z,12.20
2019-04-24T01:55:08.778Z,12.10
2019-04-24T02:02:53.813Z,11.70
2019-04-24T02:05:19.832Z,11.60
2019-04-24T02:08:16.313Z,11.50
2019-04-24T02:13:25.842Z,11.30
2019-04-24T02:18:30.148Z,11.20
2019-04-24T02:23:31.271Z,11.30
2019-04-24T02:26:01.015Z,11.40
2019-04-24T02:31:20.702Z,11.20
2019-04-24T02:44:56.830Z,11.40
2019-04-24T02:46:57.099Z,11.30
2019-04-24T02:49:43.182Z,11.40
2019-04-24T02:52:03.730Z,11.30
2019-04-24T02:57:17.230Z,11.30
2019-04-24T03:04:50.164Z,11.20
2019-04-24T03:07:49.033Z,11.20
2019-04-24T03:10:12.173Z,11.10
2019-04-24T03:25:21.193Z,11.40
2019-04-24T03:35:57.195Z,11.30
2019-04-24T03:53:47.795Z,11.40
2019-04-24T04:01:27.025Z,10.90
2019-04-24T04:04:04.104Z,11.00
2019-04-24T04:06:43.511Z,10.90
2019-04-24T04:11:45.197Z,10.90
2019-04-24T04:24:18.834Z,11.30
2019-04-24T04:29:36.061Z,11.40
2019-04-24T04:34:56.440Z,11.30
2019-04-24T04:39:43.305Z,11.30
2019-04-24T04:42:31.613Z,11.20
2019-04-24T04:44:55.092Z,11.00
2019-04-24T05:00:26.537Z,10.90
2019-04-24T05:06:01.542Z,10.90
2019-04-24T05:08:21.943Z,11.10
2019-04-24T05:13:12.892Z,11.30
2019-04-24T05:15:52.822Z,10.90
2019-04-24T05:18:19.821Z,10.90
2019-04-24T05:20:47.874Z,11.00
2019-04-24T05:28:51.250Z,11.00
2019-04-24T05:31:19.285Z,10.80
2019-04-24T05:33:33.415Z,10.60
2019-04-24T05:41:35.778Z,10.60
2019-04-24T05:49:02.646Z,10.40
2019-04-24T05:54:20.924Z,10.70
2019-04-24T05:57:09.500Z,10.80
2019-04-24T05:59:37.069Z,10.90
2019-04-24T06:12:37.149Z,11.20
2019-04-24T06:17:44.719Z,11.20
2019-04-24T06:20:36.675Z,11.20
2019-04-24T06:30:32.126Z,11.10
2019-04-24T06:32:40.535Z,11.40
2019-04-24T06:35:45.264Z,11.40
2019-04-24T06:38:00.716Z,11.50
2019-04-24T06:43:27.636Z,11.30
2019-04-24T06:45:43.712Z,11.50
2019-04-24T06:48:25.928Z,11.60
2019-04-24T06:53:28.033Z,11.50
2019-04-24T07:14:32.125Z,11.10
2019-04-24T07:17:20.171Z,11.10
2019-04-24T07:19:48.341Z,11.00
2019-04-24T07:27:29.259Z,11.10
2019-04-24T07:30:02.830Z,11.20
2019-04-24T07:35:34.825Z,11.50
2019-04-24T07:38:18.585Z,11.60
2019-04-24T07:43:30.383Z,12.40
2019-04-24T07:48:50.426Z,13.10
2019-04-24T07:51:14.844Z,13.20
2019-04-24T07:54:01.526Z,13.00
2019-04-24T07:56:44.173Z,13.00
2019-04-24T07:59:28.115Z,13.00
2019-04-24T08:01:53.985Z,12.90
2019-04-24T08:04:29.853Z,12.90
2019-04-24T08:06:55.768Z,12.90
2019-04-24T08:12:23.453Z,13.60
2019-04-24T08:22:44.828Z,12.70
2019-04-24T08:27:50.170Z,12.30
2019-04-24T08:35:06.463Z,12.40
2019-04-24T08:38:02.777Z,13.00
2019-04-24T08:40:53.490Z,13.60
2019-04-24T08:43:23.421Z,14.10
2019-04-24T08:45:58.790Z,14.50
2019-04-24T08:48:49.149Z,14.50
2019-04-24T08:56:18.230Z,14.70
2019-04-24T09:06:35.426Z,15.40
2019-04-24T09:14:35.120Z,15.70
2019-04-24T09:22:12.622Z,15.70
2019-04-24T09:24:54.657Z,16.00
2019-04-24T09:30:20.540Z,18.90
2019-04-24T09:35:48.264Z,17.80
2019-04-24T09:38:10.752Z,17.70
2019-04-24T09:43:27.255Z,19.70
2019-04-24T09:48:35.109Z,20.40
2019-04-24T09:53:45.652Z,20.50
2019-04-24T09:56:03.648Z,19.40
2019-04-24T10:04:08.919Z,19.40
2019-04-24T10:06:40.777Z,19.90
2019-04-24T10:09:01.552Z,20.50
2019-04-24T10:11:50.141Z,20.80
2019-04-24T10:14:08.109Z,20.70
2019-04-24T10:16:55.450Z,21.30
2019-04-24T10:19:29.996Z,22.20
2019-04-24T10:22:08.516Z,21.70
2019-04-24T10:24:53.643Z,21.70
2019-04-24T10:27:22.775Z,19.70
2019-04-24T10:32:54.530Z,19.30
2019-04-24T10:40:47.517Z,19.20
2019-04-24T10:43:30.830Z,20.80
2019-04-24T10:46:05.584Z,20.90
2019-04-24T10:48:44.477Z,22.00
2019-04-24T10:51:15.241Z,21.30
2019-04-24T10:54:11.894Z,20.60
2019-04-24T10:58:57.174Z,21.70
2019-04-24T11:04:45.098Z,22.00
2019-04-24T11:07:09.908Z,22.00
2019-04-24T11:09:53.885Z,21.90
2019-04-24T11:15:02.004Z,21.50
2019-04-24T11:20:04.662Z,20.90
2019-04-24T11:22:49.720Z,20.60
2019-04-24T11:25:35.090Z,20.30
2019-04-24T11:28:11.844Z,20.70
2019-04-24T11:30:33.144Z,20.80
2019-04-24T11:33:30.529Z,20.60
2019-04-24T11:35:57.471Z,20.90
2019-04-24T11:41:43.708Z,21.60
2019-04-24T11:44:09.243Z,21.50
2019-04-24T11:46:56.596Z,21.80
2019-04-24T11:49:38.080Z,21.50
2019-04-24T11:51:52.325Z,21.50
2019-04-24T11:54:23.200Z,21.20
2019-04-24T11:59:14.315Z,21.50
2019-04-24T12:02:13.366Z,21.80
2019-04-24T12:04:55.151Z,22.00
2019-04-24T12:07:19.356Z,22.20
2019-04-24T12:12:29.678Z,22.00
2019-04-24T12:22:53.659Z,22.30
2019-04-24T12:25:30.825Z,22.20
2019-04-24T12:28:05.684Z,22.00
2019-04-24T12:30:30.690Z,22.50
2019-04-24T12:32:52.064Z,22.60
2019-04-24T12:35:31.052Z,22.50
2019-04-24T12:40:40.730Z,22.60
2019-04-24T12:43:19.930Z,22.60
2019-04-24T12:45:58.287Z,22.50
2019-04-24T12:48:25.355Z,23.20
2019-04-24T12:53:30.668Z,23.70
2019-04-24T12:56:15.401Z,24.00
2019-04-24T13:01:38.426Z,23.70
2019-04-24T13:06:40.120Z,24.00
2019-04-24T13:09:32.494Z,24.50
2019-04-24T13:12:29.240Z,24.70
2019-04-24T13:15:11.228Z,24.50
2019-04-24T13:19:42.791Z,25.00
2019-04-24T13:22:27.696Z,25.00
2019-04-24T13:25:01.605Z,24.70
2019-04-24T13:28:14.708Z,24.30
2019-04-24T13:30:51.615Z,24.00
2019-04-24T13:33:21.072Z,23.30
2019-04-24T13:35:45.962Z,23.60
2019-04-24T13:38:20.846Z,24.00
2019-04-24T13:40:58.085Z,24.00
2019-04-24T13:43:33.815Z,23.80
2019-04-24T13:50:53.415Z,23.90
2019-04-24T13:53:34.130Z,24.10
2019-04-24T13:58:37.402Z,24.10
2019-04-24T14:01:35.393Z,23.70
2019-04-24T14:09:10.424Z,23.80
2019-04-24T14:14:05.518Z,23.70
2019-04-24T14:16:28.236Z,23.90
2019-04-24T14:24:20.303Z,24.20
2019-04-24T14:26:53.082Z,24.00
2019-04-24T14:29:16.561Z,23.90
2019-04-24T14:31:59.007Z,23.90
2019-04-24T14:34:34.027Z,23.80
2019-04-24T14:37:17.228Z,23.40
2019-04-24T14:42:19.496Z,23.40
2019-04-24T14:44:50.864Z,23.40
2019-04-24T14:47:29.547Z,23.10
2019-04-24T14:50:19.717Z,22.70
2019-04-24T14:57:38.833Z,22.80
2019-04-24T15:02:45.369Z,22.60
2019-04-24T15:10:20.847Z,22.40
2019-04-24T15:16:21.231Z,22.30
2019-04-24T15:18:10.877Z,22.50
2019-04-24T15:20:48.513Z,22.40
2019-04-24T15:28:13.627Z,22.20
2019-04-24T15:30:50.623Z,22.30
2019-04-24T15:33:18.117Z,22.30
2019-04-24T15:35:54.060Z,22.30
2019-04-24T15:38:25.295Z,22.30
2019-04-24T15:40:57.937Z,22.20
2019-04-24T15:45:56.935Z,22.20
2019-04-24T15:51:23.015Z,22.20
2019-04-24T15:53:04.920Z,22.20
2019-04-24T15:55:36.292Z,22.30
2019-04-24T15:58:13.890Z,22.40
2019-04-24T16:03:49.284Z,22.30
2019-04-24T16:05:45.597Z,22.20
2019-04-24T16:08:15.934Z,22.10
2019-04-24T16:10:45.904Z,22.20
2019-04-24T16:13:20.973Z,22.10
2019-04-24T16:16:16.681Z,22.00
2019-04-24T16:26:24.697Z,21.90
2019-04-24T16:29:06.615Z,22.10
2019-04-24T16:34:00.001Z,22.00
2019-04-24T16:36:44.038Z,22.00
2019-04-24T16:39:05.070Z,21.80
2019-04-24T16:41:45.304Z,21.60
2019-04-24T16:52:20.390Z,21.40
2019-04-24T16:59:19.617Z,21.00
2019-04-24T17:02:12.266Z,21.00
2019-04-24T17:04:55.522Z,20.90
2019-04-24T17:07:19.859Z,20.80
2019-04-24T17:09:57.667Z,20.90
2019-04-24T17:14:48.255Z,20.90
2019-04-24T17:17:41.551Z,20.80
2019-04-24T17:20:00.750Z,20.80
2019-04-24T17:22:30.436Z,20.90
2019-04-24T17:25:04.206Z,20.80
2019-04-24T17:27:32.670Z,20.80
2019-04-24T17:30:32.767Z,20.80
2019-04-24T17:32:40.802Z,20.80
2019-04-24T17:37:13.523Z,20.80
2019-04-24T17:39:50.783Z,20.90
2019-04-24T17:42:31.640Z,20.90
2019-04-24T17:47:59.938Z,21.00
2019-04-24T17:50:21.486Z,21.00
2019-04-24T17:55:23.820Z,21.00
2019-04-24T17:57:50.315Z,21.00
2019-04-24T18:00:06.336Z,20.90
2019-04-24T18:02:36.715Z,20.80
2019-04-24T18:05:09.681Z,20.80
2019-04-24T18:07:39.688Z,20.70
2019-04-24T18:10:10.971Z,20.60
2019-04-24T18:12:41.802Z,20.50
2019-04-24T18:15:13.112Z,20.40
2019-04-24T18:17:43.187Z,20.40
2019-04-24T18:20:13.543Z,20.30
2019-04-24T18:22:43.997Z,20.20
2019-04-24T18:25:23.280Z,20.10
2019-04-24T18:27:55.231Z,20.00
2019-04-24T18:30:32.827Z,20.00
2019-04-24T18:33:05.062Z,19.90
2019-04-24T18:35:35.177Z,19.80
2019-04-24T18:38:09.441Z,19.70
2019-04-24T18:40:37.957Z,19.70
2019-04-24T18:43:08.599Z,19.60
2019-04-24T18:45:38.565Z,19.60
2019-04-24T18:48:09.068Z,19.50
2019-04-24T18:50:39.179Z,19.30
2019-04-24T18:53:09.582Z,19.30
2019-04-24T18:55:42.290Z,19.20
2019-04-24T18:58:14.152Z,19.10
2019-04-24T19:00:43.367Z,19.10
2019-04-24T19:03:15.259Z,19.10
2019-04-24T19:05:45.342Z,19.00
2019-04-24T19:08:15.824Z,18.90
2019-04-24T19:10:46.231Z,18.80
2019-04-24T19:13:16.268Z,18.70
2019-04-24T19:15:46.276Z,18.60
2019-04-24T19:18:16.653Z,18.50
2019-04-24T19:20:47.222Z,18.50
2019-04-24T19:23:18.521Z,18.50
2019-04-24T19:25:49.114Z,18.40
2019-04-24T19:28:19.281Z,18.30
2019-04-24T19:30:49.292Z,18.30
2019-04-24T19:33:20.505Z,18.20
2019-04-24T19:35:51.481Z,18.20
2019-04-24T19:38:24.652Z,18.20
2019-04-24T19:40:53.574Z,18.30
2019-04-24T19:43:23.580Z,18.30
2019-04-24T19:45:53.719Z,18.30
2019-04-24T19:48:25.416Z,18.20
2019-04-24T19:50:55.589Z,18.20
2019-04-24T19:53:26.519Z,18.20
2019-04-24T19:55:56.641Z,18.10
2019-04-24T19:58:26.601Z,18.10
2019-04-24T20:00:56.901Z,18.10
2019-04-24T20:03:27.308Z,18.10
2019-04-24T20:05:57.910Z,18.20
2019-04-24T20:08:28.607Z,18.10
2019-04-24T20:11:14.201Z,18.10
2019-04-24T20:13:44.458Z,18.10
2019-04-24T20:16:14.517Z,18.10
2019-04-24T20:18:44.562Z,18.10
2019-04-24T20:21:16.033Z,18.10
2019-04-24T20:23:46.100Z,18.10
2019-04-24T20:26:16.187Z,18.10
2019-04-24T20:28:46.485Z,18.10
2019-04-24T20:31:17.948Z,18.10
2019-04-24T20:33:48.102Z,18.10
2019-04-24T20:36:18.579Z,18.00
2019-04-24T20:38:48.658Z,18.00
2019-04-24T20:41:19.179Z,18.00
2019-04-24T20:43:49.809Z,18.00
2019-04-24T20:46:20.151Z,17.90
2019-04-24T20:48:51.270Z,17.90
2019-04-24T20:51:22.468Z,17.80
2019-04-24T20:53:53.690Z,17.80
2019-04-24T20:56:26.333Z,17.70
2019-04-24T20:58:56.275Z,17.70
2019-04-24T21:01:28.144Z,17.60
2019-04-24T21:03:58.488Z,17.60
2019-04-24T21:06:30.039Z,17.50
2019-04-24T21:09:19.885Z,17.50
2019-04-24T21:11:51.559Z,17.40
2019-04-24T21:14:22.583Z,17.40
2019-04-24T21:16:52.850Z,17.30
2019-04-24T21:19:24.018Z,17.30
2019-04-24T21:21:54.390Z,17.30
2019-04-24T21:24:27.731Z,17.20
2019-04-24T21:26:57.087Z,17.20
2019-04-24T21:29:28.059Z,17.10
2019-04-24T21:31:58.504Z,17.10
2019-04-24T21:34:28.806Z,17.10
2019-04-24T21:36:59.075Z,17.10
2019-04-24T21:39:31.015Z,17.10
2019-04-24T21:42:01.898Z,17.10
2019-04-24T21:44:33.201Z,17.10
2019-04-24T21:47:04.352Z,17.10
2019-04-24T21:49:35.132Z,17.10
2019-04-24T21:52:05.691Z,17.10
2019-04-24T21:54:35.991Z,17.10
2019-04-24T21:57:06.691Z,17.10
2019-04-24T21:59:36.900Z,17.10
2019-04-24T22:02:11.682Z,17.10
2019-04-24T22:04:44.246Z,17.10
2019-04-24T22:07:16.221Z,17.10
2019-04-24T22:09:47.403Z,17.10
2019-04-24T22:12:19.048Z,17.00
2019-04-24T22:14:52.074Z,17.00
2019-04-24T22:17:23.191Z,16.90
2019-04-24T22:19:53.947Z,16.90
2019-04-24T22:22:28.088Z,16.90
2019-04-24T22:25:05.836Z,16.80
2019-04-24T22:27:40.122Z,16.80
2019-04-24T22:30:18.864Z,16.80
2019-04-24T22:32:49.565Z,16.70
2019-04-24T22:35:21.887Z,16.70
2019-04-24T22:37:53.519Z,16.70
2019-04-24T22:40:25.598Z,16.70
2019-04-24T22:42:55.704Z,16.70
2019-04-24T22:45:25.916Z,16.60
2019-04-24T22:47:55.733Z,16.60
2019-04-24T22:50:26.822Z,16.60
2019-04-24T22:52:56.832Z,16.60
2019-04-24T22:55:27.481Z,16.60
2019-04-24T22:57:57.642Z,16.60
2019-04-24T23:00:30.712Z,16.40
2019-04-24T23:03:01.951Z,16.30
2019-04-24T23:05:32.881Z,16.20
2019-04-24T23:08:02.795Z,16.10
2019-04-24T23:10:37.533Z,16.10
2019-04-24T23:13:05.397Z,16.00
2019-04-24T23:15:37.272Z,16.00
2019-04-24T23:18:08.450Z,15.90
2019-04-24T23:20:56.652Z,15.90
2019-04-24T23:23:33.934Z,15.90
2019-04-24T23:26:17.808Z,15.80
2019-04-24T23:29:05.611Z,15.80
2019-04-24T23:31:40.047Z,15.80
2019-04-24T23:34:14.405Z,15.80
2019-04-24T23:36:44.562Z,15.80
2019-04-24T23:39:15.487Z,15.90
2019-04-24T23:41:45.499Z,15.80
2019-04-24T23:44:15.707Z,15.70
2019-04-24T23:46:45.899Z,15.60
2019-04-24T23:49:16.026Z,15.40
2019-04-24T23:51:45.939Z,15.20
2019-04-24T23:54:15.952Z,15.10
2019-04-24T23:56:46.355Z,15.00
2019-04-24T23:59:16.424Z,14.90
